sensor_id;sensor_type;location;lat;lon;timestamp;pressure;altitude;pressure_sealevel;temperature;humidity
46722;BME280;32455;43.430;23.136;2023-02-28T00:00:25;98846.53;;;4.63;100.00
46722;BME280;32455;43.430;23.136;2023-02-28T00:03:11;98857.81;;;4.48;100.00
46722;BME280;32455;43.430;23.136;2023-02-28T00:05:56;98863.50;;;4.45;100.00
46722;BME280;32455;43.430;23.136;2023-02-28T00:08:42;98867.81;;;4.46;100.00
46722;BME280;32455;43.430;23.136;2023-02-28T00:11:27;98880.94;;;4.40;100.00
46722;BME280;32455;43.430;23.136;2023-02-28T00:14:12;98880.59;;;4.26;100.00
46722;BME280;32455;43.430;23.136;2023-02-28T00:16:57;98872.94;;;4.23;100.00
46722;BME280;32455;43.430;23.136;2023-02-28T00:19:43;98880.44;;;4.28;100.00
46722;BME280;32455;43.430;23.136;2023-02-28T00:22:28;98884.09;;;4.35;100.00
46722;BME280;32455;43.430;23.136;2023-02-28T00:25:16;98888.56;;;4.18;100.00
46722;BME280;32455;43.430;23.136;2023-02-28T00:28:01;98894.56;;;4.20;100.00
46722;BME280;32455;43.430;23.136;2023-02-28T00:30:47;98903.38;;;4.21;100.00
46722;BME280;32455;43.430;23.136;2023-02-28T00:33:32;98893.25;;;4.49;100.00
46722;BME280;32455;43.430;23.136;2023-02-28T00:36:17;98892.56;;;4.22;100.00
46722;BME280;32455;43.430;23.136;2023-02-28T00:39:03;98881.91;;;4.06;100.00
46722;BME280;32455;43.430;23.136;2023-02-28T00:44:30;98889.75;;;4.40;100.00
46722;BME280;32455;43.430;23.136;2023-02-28T00:47:15;98907.72;;;4.46;100.00
46722;BME280;32455;43.430;23.136;2023-02-28T00:50:00;98902.53;;;4.37;100.00
46722;BME280;32455;43.430;23.136;2023-02-28T00:52:47;98915.31;;;4.09;100.00
46722;BME280;32455;43.430;23.136;2023-02-28T00:55:32;98898.88;;;4.21;100.00
46722;BME280;32455;43.430;23.136;2023-02-28T00:58:18;98911.03;;;4.32;100.00
46722;BME280;32455;43.430;23.136;2023-02-28T01:01:03;98898.72;;;4.23;100.00
46722;BME280;32455;43.430;23.136;2023-02-28T01:03:49;98900.16;;;4.01;100.00
46722;BME280;32455;43.430;23.136;2023-02-28T01:06:35;98915.03;;;4.20;100.00
46722;BME280;32455;43.430;23.136;2023-02-28T01:09:21;98910.69;;;4.35;100.00
46722;BME280;32455;43.430;23.136;2023-02-28T01:12:07;98909.38;;;4.47;100.00
46722;BME280;32455;43.430;23.136;2023-02-28T01:14:53;98904.25;;;4.54;100.00
46722;BME280;32455;43.430;23.136;2023-02-28T01:17:38;98898.91;;;4.38;100.00
46722;BME280;32455;43.430;23.136;2023-02-28T01:20:24;98907.69;;;4.22;100.00
46722;BME280;32455;43.430;23.136;2023-02-28T01:23:09;98904.38;;;4.28;100.00
46722;BME280;32455;43.430;23.136;2023-02-28T01:25:54;98911.69;;;4.26;100.00
46722;BME280;32455;43.430;23.136;2023-02-28T01:28:39;98913.69;;;4.24;100.00
46722;BME280;32455;43.430;23.136;2023-02-28T01:31:25;98892.84;;;3.87;100.00
46722;BME280;32455;43.430;23.136;2023-02-28T01:34:11;98910.34;;;4.14;100.00
46722;BME280;32455;43.430;23.136;2023-02-28T01:36:56;98914.31;;;4.10;100.00
46722;BME280;32455;43.430;23.136;2023-02-28T01:39:43;98905.81;;;3.98;100.00
46722;BME280;32455;43.430;23.136;2023-02-28T01:42:29;98905.94;;;3.80;100.00
46722;BME280;32455;43.430;23.136;2023-02-28T01:48:08;98907.28;;;3.92;100.00
46722;BME280;32455;43.430;23.136;2023-02-28T01:50:56;98901.34;;;3.98;100.00
46722;BME280;32455;43.430;23.136;2023-02-28T01:53:51;98910.97;;;3.99;100.00
46722;BME280;32455;43.430;23.136;2023-02-28T01:56:40;98910.50;;;4.04;100.00
46722;BME280;32455;43.430;23.136;2023-02-28T01:59:41;98907.00;;;4.04;100.00
46722;BME280;32455;43.430;23.136;2023-02-28T02:02:37;98917.44;;;3.97;100.00
46722;BME280;32455;43.430;23.136;2023-02-28T02:05:27;98912.28;;;3.95;100.00
46722;BME280;32455;43.430;23.136;2023-02-28T02:08:30;98912.44;;;3.86;100.00
46722;BME280;32455;43.430;23.136;2023-02-28T02:11:18;98910.28;;;3.89;100.00
46722;BME280;32455;43.430;23.136;2023-02-28T02:14:32;98910.09;;;3.83;100.00
46722;BME280;32455;43.430;23.136;2023-02-28T02:17:43;98888.34;;;3.87;100.00
46722;BME280;32455;43.430;23.136;2023-02-28T02:24:11;98900.69;;;3.54;100.00
46722;BME280;32455;43.430;23.136;2023-02-28T02:27:26;98905.66;;;3.49;100.00
46722;BME280;32455;43.430;23.136;2023-02-28T02:30:33;98903.03;;;3.57;100.00
46722;BME280;32455;43.430;23.136;2023-02-28T02:33:41;98902.97;;;3.91;100.00
46722;BME280;32455;43.430;23.136;2023-02-28T02:39:51;98905.00;;;3.47;100.00
46722;BME280;32455;43.430;23.136;2023-02-28T02:45:36;98905.00;;;3.55;100.00
46722;BME280;32455;43.430;23.136;2023-02-28T02:48:26;98915.38;;;3.74;100.00
46722;BME280;32455;43.430;23.136;2023-02-28T02:51:17;98920.31;;;3.61;100.00
46722;BME280;32455;43.430;23.136;2023-02-28T02:54:11;98895.13;;;3.31;100.00
46722;BME280;32455;43.430;23.136;2023-02-28T02:57:03;98905.97;;;3.46;100.00
46722;BME280;32455;43.430;23.136;2023-02-28T02:59:51;98911.69;;;3.67;100.00
46722;BME280;32455;43.430;23.136;2023-02-28T03:02:39;98923.06;;;3.86;100.00
46722;BME280;32455;43.430;23.136;2023-02-28T03:05:29;98926.16;;;3.65;100.00
46722;BME280;32455;43.430;23.136;2023-02-28T03:08:17;98916.88;;;3.69;100.00
46722;BME280;32455;43.430;23.136;2023-02-28T03:11:11;98930.00;;;3.70;100.00
46722;BME280;32455;43.430;23.136;2023-02-28T03:14:04;98941.22;;;3.56;100.00
46722;BME280;32455;43.430;23.136;2023-02-28T03:20:19;98935.63;;;3.67;100.00
46722;BME280;32455;43.430;23.136;2023-02-28T03:23:34;98932.22;;;3.49;100.00
46722;BME280;32455;43.430;23.136;2023-02-28T03:26:23;98928.91;;;3.21;100.00
46722;BME280;32455;43.430;23.136;2023-02-28T03:29:18;98939.97;;;3.42;100.00
46722;BME280;32455;43.430;23.136;2023-02-28T03:35:31;98943.44;;;3.35;100.00
46722;BME280;32455;43.430;23.136;2023-02-28T03:38:30;98946.34;;;3.23;100.00
46722;BME280;32455;43.430;23.136;2023-02-28T03:41:27;98951.66;;;3.49;100.00
46722;BME280;32455;43.430;23.136;2023-02-28T03:44:24;98958.13;;;3.21;100.00
46722;BME280;32455;43.430;23.136;2023-02-28T03:50:20;98959.84;;;3.56;100.00
46722;BME280;32455;43.430;23.136;2023-02-28T03:53:09;98954.66;;;3.55;100.00
46722;BME280;32455;43.430;23.136;2023-02-28T03:56:00;98961.66;;;3.56;100.00
46722;BME280;32455;43.430;23.136;2023-02-28T03:58:55;98973.44;;;3.53;100.00
46722;BME280;32455;43.430;23.136;2023-02-28T04:01:45;98971.78;;;3.52;100.00
46722;BME280;32455;43.430;23.136;2023-02-28T04:04:31;98962.28;;;3.49;100.00
46722;BME280;32455;43.430;23.136;2023-02-28T04:07:17;98964.09;;;3.49;100.00
46722;BME280;32455;43.430;23.136;2023-02-28T04:10:03;98971.19;;;3.40;100.00
46722;BME280;32455;43.430;23.136;2023-02-28T04:12:49;98951.03;;;3.30;100.00
46722;BME280;32455;43.430;23.136;2023-02-28T04:15:35;98971.91;;;3.50;100.00
46722;BME280;32455;43.430;23.136;2023-02-28T04:18:21;98967.75;;;3.48;100.00
46722;BME280;32455;43.430;23.136;2023-02-28T04:21:07;98975.69;;;3.74;100.00
46722;BME280;32455;43.430;23.136;2023-02-28T04:23:52;98984.53;;;3.83;100.00
46722;BME280;32455;43.430;23.136;2023-02-28T04:26:38;98967.03;;;3.72;100.00
46722;BME280;32455;43.430;23.136;2023-02-28T04:29:29;98982.19;;;3.80;100.00
46722;BME280;32455;43.430;23.136;2023-02-28T04:32:15;98969.16;;;3.60;100.00
46722;BME280;32455;43.430;23.136;2023-02-28T04:35:00;98959.13;;;3.54;100.00
46722;BME280;32455;43.430;23.136;2023-02-28T04:37:46;98974.16;;;3.37;100.00
46722;BME280;32455;43.430;23.136;2023-02-28T04:40:31;98969.03;;;3.70;100.00
46722;BME280;32455;43.430;23.136;2023-02-28T04:43:16;98943.28;;;3.36;100.00
46722;BME280;32455;43.430;23.136;2023-02-28T04:46:03;98987.38;;;3.55;100.00
46722;BME280;32455;43.430;23.136;2023-02-28T04:48:49;98977.56;;;3.47;100.00
46722;BME280;32455;43.430;23.136;2023-02-28T04:51:34;98974.78;;;3.31;100.00
46722;BME280;32455;43.430;23.136;2023-02-28T04:54:18;98982.00;;;3.39;100.00
46722;BME280;32455;43.430;23.136;2023-02-28T04:57:03;98974.28;;;3.28;100.00
46722;BME280;32455;43.430;23.136;2023-02-28T04:59:49;98967.91;;;3.46;100.00
46722;BME280;32455;43.430;23.136;2023-02-28T05:02:35;98974.94;;;3.30;100.00
46722;BME280;32455;43.430;23.136;2023-02-28T05:05:21;98979.16;;;3.40;100.00
46722;BME280;32455;43.430;23.136;2023-02-28T05:08:06;98978.91;;;3.25;100.00
46722;BME280;32455;43.430;23.136;2023-02-28T05:10:52;98979.75;;;3.08;100.00
46722;BME280;32455;43.430;23.136;2023-02-28T05:13:37;99009.91;;;2.99;100.00
46722;BME280;32455;43.430;23.136;2023-02-28T05:16:23;99007.19;;;3.09;100.00
46722;BME280;32455;43.430;23.136;2023-02-28T05:19:08;99002.44;;;3.20;100.00
46722;BME280;32455;43.430;23.136;2023-02-28T05:21:54;99008.13;;;3.25;100.00
46722;BME280;32455;43.430;23.136;2023-02-28T05:24:40;99007.84;;;3.37;100.00
46722;BME280;32455;43.430;23.136;2023-02-28T05:27:27;99003.78;;;3.24;100.00
46722;BME280;32455;43.430;23.136;2023-02-28T05:30:13;99016.69;;;3.19;100.00
46722;BME280;32455;43.430;23.136;2023-02-28T05:32:59;99002.19;;;3.32;100.00
46722;BME280;32455;43.430;23.136;2023-02-28T05:35:45;99017.81;;;3.35;100.00
46722;BME280;32455;43.430;23.136;2023-02-28T05:38:30;99011.09;;;3.22;100.00
46722;BME280;32455;43.430;23.136;2023-02-28T05:41:18;99026.94;;;3.32;100.00
46722;BME280;32455;43.430;23.136;2023-02-28T05:44:04;99026.72;;;3.25;100.00
46722;BME280;32455;43.430;23.136;2023-02-28T05:46:49;99014.81;;;3.12;100.00
46722;BME280;32455;43.430;23.136;2023-02-28T05:49:35;99028.53;;;3.25;100.00
46722;BME280;32455;43.430;23.136;2023-02-28T05:52:21;99029.06;;;3.29;100.00
46722;BME280;32455;43.430;23.136;2023-02-28T05:55:06;99023.53;;;3.22;100.00
46722;BME280;32455;43.430;23.136;2023-02-28T05:57:52;99022.53;;;3.23;100.00
46722;BME280;32455;43.430;23.136;2023-02-28T06:00:38;99028.06;;;3.30;100.00
46722;BME280;32455;43.430;23.136;2023-02-28T06:03:23;99039.53;;;3.30;100.00
46722;BME280;32455;43.430;23.136;2023-02-28T06:06:08;99039.69;;;3.29;100.00
46722;BME280;32455;43.430;23.136;2023-02-28T06:08:53;99035.06;;;3.31;100.00
46722;BME280;32455;43.430;23.136;2023-02-28T06:11:39;99048.91;;;3.42;100.00
46722;BME280;32455;43.430;23.136;2023-02-28T06:14:24;99038.84;;;3.28;100.00
46722;BME280;32455;43.430;23.136;2023-02-28T06:17:10;99035.53;;;3.26;100.00
46722;BME280;32455;43.430;23.136;2023-02-28T06:19:56;99046.03;;;3.36;100.00
46722;BME280;32455;43.430;23.136;2023-02-28T06:22:41;99046.22;;;3.34;100.00
46722;BME280;32455;43.430;23.136;2023-02-28T06:25:27;99048.22;;;3.40;100.00
46722;BME280;32455;43.430;23.136;2023-02-28T06:28:13;99060.38;;;3.43;100.00
46722;BME280;32455;43.430;23.136;2023-02-28T06:30:58;99037.59;;;3.40;100.00
46722;BME280;32455;43.430;23.136;2023-02-28T06:33:45;99055.44;;;3.74;100.00
46722;BME280;32455;43.430;23.136;2023-02-28T06:36:30;99066.53;;;3.43;100.00
46722;BME280;32455;43.430;23.136;2023-02-28T06:39:15;99066.97;;;3.13;100.00
46722;BME280;32455;43.430;23.136;2023-02-28T06:42:00;99067.31;;;3.18;100.00
46722;BME280;32455;43.430;23.136;2023-02-28T06:44:45;99078.09;;;3.60;100.00
46722;BME280;32455;43.430;23.136;2023-02-28T06:47:31;99059.13;;;3.55;100.00
46722;BME280;32455;43.430;23.136;2023-02-28T06:50:16;99067.56;;;3.50;100.00
46722;BME280;32455;43.430;23.136;2023-02-28T06:53:05;99062.53;;;3.65;100.00
46722;BME280;32455;43.430;23.136;2023-02-28T06:55:50;99053.38;;;3.42;100.00
46722;BME280;32455;43.430;23.136;2023-02-28T06:58:36;99060.34;;;3.61;100.00
46722;BME280;32455;43.430;23.136;2023-02-28T07:01:22;99071.78;;;3.61;100.00
46722;BME280;32455;43.430;23.136;2023-02-28T07:04:09;99068.97;;;3.63;100.00
46722;BME280;32455;43.430;23.136;2023-02-28T07:06:54;99056.50;;;3.63;100.00
46722;BME280;32455;43.430;23.136;2023-02-28T07:09:41;99053.13;;;3.27;100.00
46722;BME280;32455;43.430;23.136;2023-02-28T07:12:27;99054.66;;;3.56;100.00
46722;BME280;32455;43.430;23.136;2023-02-28T07:15:13;99077.22;;;3.78;100.00
46722;BME280;32455;43.430;23.136;2023-02-28T07:17:58;99060.53;;;3.67;100.00
46722;BME280;32455;43.430;23.136;2023-02-28T07:20:43;99060.16;;;3.88;100.00
46722;BME280;32455;43.430;23.136;2023-02-28T07:23:29;99051.59;;;3.68;100.00
46722;BME280;32455;43.430;23.136;2023-02-28T07:26:15;99056.44;;;3.73;100.00
46722;BME280;32455;43.430;23.136;2023-02-28T07:29:01;99064.34;;;3.91;100.00
46722;BME280;32455;43.430;23.136;2023-02-28T07:31:47;99070.19;;;3.94;100.00
46722;BME280;32455;43.430;23.136;2023-02-28T07:34:32;99072.78;;;3.86;100.00
46722;BME280;32455;43.430;23.136;2023-02-28T07:37:18;99073.44;;;3.88;100.00
46722;BME280;32455;43.430;23.136;2023-02-28T07:40:05;99068.66;;;3.92;100.00
46722;BME280;32455;43.430;23.136;2023-02-28T07:42:53;99074.91;;;3.83;100.00
46722;BME280;32455;43.430;23.136;2023-02-28T07:45:38;99059.78;;;3.83;100.00
46722;BME280;32455;43.430;23.136;2023-02-28T07:48:24;99067.94;;;3.82;100.00
46722;BME280;32455;43.430;23.136;2023-02-28T07:51:09;99067.19;;;3.97;100.00
46722;BME280;32455;43.430;23.136;2023-02-28T07:53:55;99073.50;;;3.96;100.00
46722;BME280;32455;43.430;23.136;2023-02-28T07:56:41;99068.44;;;3.85;100.00
46722;BME280;32455;43.430;23.136;2023-02-28T07:59:27;99085.22;;;4.12;100.00
46722;BME280;32455;43.430;23.136;2023-02-28T08:02:21;99083.56;;;3.85;100.00
46722;BME280;32455;43.430;23.136;2023-02-28T08:05:06;99092.53;;;3.84;100.00
46722;BME280;32455;43.430;23.136;2023-02-28T08:07:52;99084.16;;;3.70;100.00
46722;BME280;32455;43.430;23.136;2023-02-28T08:10:38;99093.16;;;3.78;100.00
46722;BME280;32455;43.430;23.136;2023-02-28T08:13:23;99100.25;;;3.95;100.00
46722;BME280;32455;43.430;23.136;2023-02-28T08:16:10;99103.56;;;3.97;100.00
46722;BME280;32455;43.430;23.136;2023-02-28T08:18:55;99101.59;;;3.99;100.00
46722;BME280;32455;43.430;23.136;2023-02-28T08:21:40;99097.59;;;3.95;100.00
46722;BME280;32455;43.430;23.136;2023-02-28T08:24:25;99100.72;;;3.90;100.00
46722;BME280;32455;43.430;23.136;2023-02-28T08:27:10;99105.22;;;3.90;100.00
46722;BME280;32455;43.430;23.136;2023-02-28T08:29:55;99104.31;;;4.15;100.00
46722;BME280;32455;43.430;23.136;2023-02-28T08:32:41;99092.03;;;4.14;100.00
46722;BME280;32455;43.430;23.136;2023-02-28T08:35:26;99106.19;;;4.23;100.00
46722;BME280;32455;43.430;23.136;2023-02-28T08:38:12;99088.75;;;4.20;100.00
46722;BME280;32455;43.430;23.136;2023-02-28T08:40:59;99103.88;;;4.28;100.00
46722;BME280;32455;43.430;23.136;2023-02-28T08:43:45;99107.03;;;4.23;100.00
46722;BME280;32455;43.430;23.136;2023-02-28T08:46:30;99105.97;;;4.08;100.00
46722;BME280;32455;43.430;23.136;2023-02-28T08:49:15;99112.50;;;3.88;100.00
46722;BME280;32455;43.430;23.136;2023-02-28T08:52:00;99092.19;;;4.13;100.00
46722;BME280;32455;43.430;23.136;2023-02-28T08:54:46;99106.53;;;4.28;100.00
46722;BME280;32455;43.430;23.136;2023-02-28T08:57:32;99104.97;;;4.09;100.00
46722;BME280;32455;43.430;23.136;2023-02-28T09:00:18;99103.00;;;4.19;100.00
46722;BME280;32455;43.430;23.136;2023-02-28T09:03:03;99106.38;;;4.21;100.00
46722;BME280;32455;43.430;23.136;2023-02-28T09:05:56;99101.59;;;4.33;100.00
46722;BME280;32455;43.430;23.136;2023-02-28T09:08:42;99107.53;;;4.27;100.00
46722;BME280;32455;43.430;23.136;2023-02-28T09:11:28;99105.22;;;4.24;100.00
46722;BME280;32455;43.430;23.136;2023-02-28T09:14:13;99085.69;;;4.41;100.00
46722;BME280;32455;43.430;23.136;2023-02-28T09:16:59;99095.59;;;4.31;100.00
46722;BME280;32455;43.430;23.136;2023-02-28T09:19:44;99100.84;;;4.15;100.00
46722;BME280;32455;43.430;23.136;2023-02-28T09:22:29;99114.44;;;4.38;100.00
46722;BME280;32455;43.430;23.136;2023-02-28T09:25:15;99098.13;;;4.33;100.00
46722;BME280;32455;43.430;23.136;2023-02-28T09:28:01;99114.75;;;4.35;100.00
46722;BME280;32455;43.430;23.136;2023-02-28T09:30:49;99115.41;;;4.37;100.00
46722;BME280;32455;43.430;23.136;2023-02-28T09:33:35;99109.03;;;4.21;100.00
46722;BME280;32455;43.430;23.136;2023-02-28T09:36:22;99094.25;;;3.93;100.00
46722;BME280;32455;43.430;23.136;2023-02-28T09:39:09;99096.91;;;4.27;100.00
46722;BME280;32455;43.430;23.136;2023-02-28T09:41:55;99096.25;;;4.25;100.00
46722;BME280;32455;43.430;23.136;2023-02-28T09:44:43;99105.84;;;4.18;100.00
46722;BME280;32455;43.430;23.136;2023-02-28T09:47:34;99106.53;;;4.28;100.00
46722;BME280;32455;43.430;23.136;2023-02-28T09:56:19;99099.78;;;3.99;100.00
46722;BME280;32455;43.430;23.136;2023-02-28T09:59:53;99091.22;;;3.88;100.00
46722;BME280;32455;43.430;23.136;2023-02-28T10:05:19;99108.47;;;4.10;100.00
46722;BME280;32455;43.430;23.136;2023-02-28T10:08:25;99103.66;;;4.13;100.00
46722;BME280;32455;43.430;23.136;2023-02-28T10:11:17;99091.16;;;4.06;100.00
46722;BME280;32455;43.430;23.136;2023-02-28T10:14:24;99093.41;;;3.92;100.00
46722;BME280;32455;43.430;23.136;2023-02-28T10:17:14;99105.38;;;4.22;100.00
46722;BME280;32455;43.430;23.136;2023-02-28T10:20:21;99093.25;;;4.20;100.00
46722;BME280;32455;43.430;23.136;2023-02-28T10:26:10;99112.16;;;4.17;100.00
46722;BME280;32455;43.430;23.136;2023-02-28T10:28:56;99112.16;;;4.17;100.00
46722;BME280;32455;43.430;23.136;2023-02-28T10:31:42;99103.94;;;4.02;100.00
46722;BME280;32455;43.430;23.136;2023-02-28T10:34:27;99113.66;;;4.11;100.00
46722;BME280;32455;43.430;23.136;2023-02-28T10:37:13;99121.25;;;4.06;100.00
46722;BME280;32455;43.430;23.136;2023-02-28T10:39:58;99115.91;;;4.06;100.00
46722;BME280;32455;43.430;23.136;2023-02-28T10:43:05;99103.97;;;4.10;100.00
46722;BME280;32455;43.430;23.136;2023-02-28T10:48:50;99121.97;;;4.16;100.00
46722;BME280;32455;43.430;23.136;2023-02-28T10:51:43;99107.44;;;4.03;100.00
46722;BME280;32455;43.430;23.136;2023-02-28T10:54:33;99105.22;;;3.98;100.00
46722;BME280;32455;43.430;23.136;2023-02-28T10:57:23;99098.13;;;3.98;100.00
46722;BME280;32455;43.430;23.136;2023-02-28T11:00:16;99114.66;;;4.18;100.00
46722;BME280;32455;43.430;23.136;2023-02-28T11:03:24;99099.00;;;4.15;100.00
46722;BME280;32455;43.430;23.136;2023-02-28T11:06:30;99106.31;;;4.13;100.00
46722;BME280;32455;43.430;23.136;2023-02-28T11:12:23;99084.97;;;3.97;100.00
46722;BME280;32455;43.430;23.136;2023-02-28T11:15:23;99099.69;;;4.17;100.00
46722;BME280;32455;43.430;23.136;2023-02-28T11:20:59;99101.84;;;4.14;100.00
46722;BME280;32455;43.430;23.136;2023-02-28T11:23:47;99090.84;;;4.09;100.00
46722;BME280;32455;43.430;23.136;2023-02-28T11:26:43;99096.50;;;4.14;100.00
46722;BME280;32455;43.430;23.136;2023-02-28T11:29:31;99097.22;;;4.16;100.00
46722;BME280;32455;43.430;23.136;2023-02-28T11:32:20;99087.97;;;4.02;100.00
46722;BME280;32455;43.430;23.136;2023-02-28T11:37:55;99088.97;;;4.01;100.00
46722;BME280;32455;43.430;23.136;2023-02-28T11:44:19;99091.53;;;4.19;100.00
46722;BME280;32455;43.430;23.136;2023-02-28T11:53:19;99086.34;;;4.09;100.00
46722;BME280;32455;43.430;23.136;2023-02-28T11:59:18;99082.16;;;4.33;100.00
46722;BME280;32455;43.430;23.136;2023-02-28T12:02:41;99058.28;;;4.15;100.00
46722;BME280;32455;43.430;23.136;2023-02-28T12:05:39;99083.75;;;4.17;100.00
46722;BME280;32455;43.430;23.136;2023-02-28T12:08:55;99073.63;;;4.21;100.00
46722;BME280;32455;43.430;23.136;2023-02-28T12:11:48;99080.25;;;4.17;100.00
46722;BME280;32455;43.430;23.136;2023-02-28T12:23:46;99070.25;;;4.19;100.00
46722;BME280;32455;43.430;23.136;2023-02-28T12:29:28;99076.63;;;4.26;100.00
46722;BME280;32455;43.430;23.136;2023-02-28T12:32:22;99084.78;;;4.24;100.00
46722;BME280;32455;43.430;23.136;2023-02-28T12:35:19;99086.97;;;4.29;100.00
46722;BME280;32455;43.430;23.136;2023-02-28T12:38:28;99088.28;;;4.25;100.00
46722;BME280;32455;43.430;23.136;2023-02-28T12:41:34;99081.97;;;4.34;100.00
46722;BME280;32455;43.430;23.136;2023-02-28T12:44:35;99083.31;;;4.38;100.00
46722;BME280;32455;43.430;23.136;2023-02-28T12:47:23;99073.31;;;4.24;100.00
46722;BME280;32455;43.430;23.136;2023-02-28T12:50:12;99087.13;;;4.36;100.00
46722;BME280;32455;43.430;23.136;2023-02-28T12:53:09;99066.69;;;4.02;100.00
46722;BME280;32455;43.430;23.136;2023-02-28T12:56:13;99085.03;;;4.13;100.00
46722;BME280;32455;43.430;23.136;2023-02-28T12:59:14;99080.91;;;4.19;100.00
46722;BME280;32455;43.430;23.136;2023-02-28T13:08:52;99062.78;;;4.14;100.00
46722;BME280;32455;43.430;23.136;2023-02-28T13:11:46;99059.16;;;4.23;100.00
46722;BME280;32455;43.430;23.136;2023-02-28T13:14:37;99058.66;;;4.20;100.00
46722;BME280;32455;43.430;23.136;2023-02-28T13:17:24;99068.00;;;4.24;100.00
46722;BME280;32455;43.430;23.136;2023-02-28T13:20:19;99068.34;;;3.95;100.00
46722;BME280;32455;43.430;23.136;2023-02-28T13:24:07;99068.56;;;4.10;100.00
46722;BME280;32455;43.430;23.136;2023-02-28T13:29:30;99066.38;;;4.05;100.00
46722;BME280;32455;43.430;23.136;2023-02-28T13:32:29;99062.41;;;4.09;100.00
46722;BME280;32455;43.430;23.136;2023-02-28T13:35:37;99061.06;;;4.05;100.00
46722;BME280;32455;43.430;23.136;2023-02-28T13:38:25;99050.03;;;3.92;100.00
46722;BME280;32455;43.430;23.136;2023-02-28T13:44:23;99043.63;;;4.11;100.00
46722;BME280;32455;43.430;23.136;2023-02-28T13:47:20;99059.00;;;4.25;100.00
46722;BME280;32455;43.430;23.136;2023-02-28T13:56:27;99050.63;;;4.12;100.00
46722;BME280;32455;43.430;23.136;2023-02-28T14:00:13;99048.19;;;4.26;100.00
46722;BME280;32455;43.430;23.136;2023-02-28T14:02:38;99045.59;;;4.00;100.00
46722;BME280;32455;43.430;23.136;2023-02-28T14:05:32;99030.78;;;3.98;100.00
46722;BME280;32455;43.430;23.136;2023-02-28T14:08:21;99037.78;;;3.99;100.00
46722;BME280;32455;43.430;23.136;2023-02-28T14:11:15;99041.69;;;4.21;100.00
46722;BME280;32455;43.430;23.136;2023-02-28T14:15:23;99028.00;;;4.08;100.00
46722;BME280;32455;43.430;23.136;2023-02-28T14:17:37;99038.00;;;4.14;100.00
46722;BME280;32455;43.430;23.136;2023-02-28T14:20:26;99037.53;;;4.18;100.00
46722;BME280;32455;43.430;23.136;2023-02-28T14:23:26;99039.53;;;4.16;100.00
46722;BME280;32455;43.430;23.136;2023-02-28T14:26:30;99042.31;;;4.15;100.00
46722;BME280;32455;43.430;23.136;2023-02-28T14:38:21;99032.66;;;4.06;100.00
46722;BME280;32455;43.430;23.136;2023-02-28T14:41:30;99042.44;;;4.05;100.00
46722;BME280;32455;43.430;23.136;2023-02-28T14:44:21;99044.63;;;4.10;100.00
46722;BME280;32455;43.430;23.136;2023-02-28T14:47:15;99041.94;;;4.01;100.00
46722;BME280;32455;43.430;23.136;2023-02-28T14:50:02;99052.81;;;4.16;100.00
46722;BME280;32455;43.430;23.136;2023-02-28T14:52:57;99051.81;;;4.17;100.00
46722;BME280;32455;43.430;23.136;2023-02-28T14:55:46;99050.91;;;4.00;100.00
46722;BME280;32455;43.430;23.136;2023-02-28T14:58:33;99055.91;;;4.04;100.00
46722;BME280;32455;43.430;23.136;2023-02-28T15:01:20;99061.06;;;4.05;100.00
46722;BME280;32455;43.430;23.136;2023-02-28T15:04:24;99045.38;;;3.86;100.00
46722;BME280;32455;43.430;23.136;2023-02-28T15:07:14;99058.91;;;3.74;100.00
46722;BME280;32455;43.430;23.136;2023-02-28T15:13:10;99075.09;;;3.89;100.00
46722;BME280;32455;43.430;23.136;2023-02-28T15:15:59;99047.63;;;3.81;100.00
46722;BME280;32455;43.430;23.136;2023-02-28T15:21:39;99062.28;;;3.85;100.00
46722;BME280;32455;43.430;23.136;2023-02-28T15:24:43;99063.84;;;3.95;100.00
46722;BME280;32455;43.430;23.136;2023-02-28T15:27:33;99059.88;;;3.99;100.00
46722;BME280;32455;43.430;23.136;2023-02-28T15:30:30;99070.66;;;3.98;100.00
46722;BME280;32455;43.430;23.136;2023-02-28T15:33:25;99043.06;;;3.91;100.00
46722;BME280;32455;43.430;23.136;2023-02-28T15:36:16;99056.53;;;3.97;100.00
46722;BME280;32455;43.430;23.136;2023-02-28T15:39:24;99062.47;;;3.83;100.00
46722;BME280;32455;43.430;23.136;2023-02-28T15:42:19;99067.03;;;3.99;100.00
46722;BME280;32455;43.430;23.136;2023-02-28T15:45:05;99054.22;;;3.94;100.00
46722;BME280;32455;43.430;23.136;2023-02-28T15:47:51;99063.47;;;3.82;100.00
46722;BME280;32455;43.430;23.136;2023-02-28T15:50:37;99070.34;;;4.01;100.00
46722;BME280;32455;43.430;23.136;2023-02-28T15:53:41;99061.56;;;3.74;100.00
46722;BME280;32455;43.430;23.136;2023-02-28T15:56:31;99067.53;;;3.68;100.00
46722;BME280;32455;43.430;23.136;2023-02-28T15:59:25;99051.78;;;3.75;100.00
46722;BME280;32455;43.430;23.136;2023-02-28T16:02:32;99069.56;;;3.74;100.00
46722;BME280;32455;43.430;23.136;2023-02-28T16:05:22;99066.91;;;3.74;100.00
46722;BME280;32455;43.430;23.136;2023-02-28T16:08:15;99060.63;;;3.58;100.00
46722;BME280;32455;43.430;23.136;2023-02-28T16:11:00;99064.88;;;3.68;100.00
46722;BME280;32455;43.430;23.136;2023-02-28T16:13:45;99062.28;;;3.85;100.00
46722;BME280;32455;43.430;23.136;2023-02-28T16:16:32;99073.41;;;3.80;100.00
46722;BME280;32455;43.430;23.136;2023-02-28T16:19:19;99073.22;;;3.73;100.00
46722;BME280;32455;43.430;23.136;2023-02-28T16:22:05;99068.84;;;3.72;100.00
46722;BME280;32455;43.430;23.136;2023-02-28T16:24:50;99077.84;;;3.71;100.00
46722;BME280;32455;43.430;23.136;2023-02-28T16:27:37;99070.91;;;3.79;100.00
46722;BME280;32455;43.430;23.136;2023-02-28T16:30:24;99086.22;;;3.85;100.00
46722;BME280;32455;43.430;23.136;2023-02-28T16:33:10;99082.38;;;3.79;100.00
46722;BME280;32455;43.430;23.136;2023-02-28T16:35:55;99077.53;;;3.74;100.00